Latest Weather Observations for Fingal

IDT60801

Issued at 10:21 am EDT Friday 15 November 2019 (issued every 10 minutes, with the page automatically refreshed every 10 minutes)

About weather observations | Map of weather stations | Latest weather observations for TAS | Other Formats
Station Details ID: 092012 Name: FINGAL (LEGGE STREET) Lat: -41.64 Lon: 147.97 Height: 237.0 m
Data from the previous 72 hours. | See also: Recent months at Fingal
Date/Time
EDT
Temp
°C
App
Temp
°C
Dew
Point
°C
Rel
Hum
%
Delta-T
°C
Wind Press
QNH
hPa
Press
MSL
hPa
Rain since
9am
mm
Dir  Spd
km/h
Gust
km/h
Spd
kts
Gust
kts
15/10:00am 15.6 8.8 -1.9 30 7.2 WSW 24 44 13 24 - - 0.0
15/09:30am 15.0 9.1 -1.1 33 6.7 WSW 20 35 11 19 - - 0.0
15/09:00am 14.5 8.3 -0.4 36 6.3 WSW 22 35 12 19 - - 0.0
15/08:30am 13.9 7.8 0.2 39 5.8 WSW 22 39 12 21 - - 0.0
15/08:00am 13.7 7.2 0.4 40 5.7 WSW 24 39 13 21 - - 0.0
15/07:30am 13.4 7.2 -0.6 38 5.8 WSW 22 39 12 21 - - 0.0
15/07:00am 12.1 7.5 1.7 49 4.5 SW 15 26 8 14 - - 0.0
15/06:30am 11.7 7.1 1.6 50 4.3 W 15 22 8 12 - - 0.0
15/06:00am 11.8 7.7 2.3 52 4.2 SW 13 22 7 12 - - 0.0
15/05:30am 11.4 7.4 2.7 55 3.8 WSW 13 30 7 16 - - 0.0
15/05:00am 10.8 7.5 2.6 57 3.6 WNW 9 15 5 8 - - 0.0
15/04:30am 11.8 7.3 2.3 52 4.2 WSW 15 22 8 12 - - 0.0
15/04:00am 12.2 8.1 2.1 50 4.4 SW 13 24 7 13 - - 0.0
15/03:30am 12.5 7.7 2.4 50 4.5 SW 17 26 9 14 - - 0.0
15/03:00am 12.6 8.2 2.5 50 4.5 SSW 15 30 8 16 - - 0.0
15/02:30am 11.5 8.6 2.5 54 3.9 SW 7 11 4 6 - - 0.0
15/02:00am 12.3 8.7 3.0 53 4.1 SW 11 19 6 10 - - 0.0
15/01:30am 12.6 9.3 2.7 51 4.4 WSW 9 17 5 9 - - 0.0
15/01:00am 12.5 9.2 2.7 51 4.3 SE 9 19 5 10 - - 0.0
15/12:30am 12.6 9.9 2.5 50 4.5 S 6 9 3 5 - - 0.0
15/12:00am 13.6 9.0 1.6 44 5.2 WSW 15 30 8 16 - - 0.0
 
Date/Time
EDT
Temp
°C
App
Temp
°C
Dew
Point
°C
Rel
Hum
%
Delta-T
°C
Wind Press
QNH
hPa
Press
MSL
hPa
Rain since
9am
mm
Dir  Spd
km/h
Gust
km/h
Spd
kts
Gust
kts
14/11:30pm 14.0 6.8 1.0 41 5.6 NW 28 48 15 26 - - 0.0
14/11:29pm 14.1 7.3 0.7 40 5.8 NW 26 48 14 26 - - 0.0
14/11:00pm 14.4 7.0 -0.5 36 6.3 NW 28 54 15 29 - - 0.0
14/10:30pm 14.4 9.5 -0.5 36 6.3 NNE 15 48 8 26 - - 0.0
14/10:29pm 14.3 9.8 -0.2 37 6.1 NNE 13 48 7 26 - - 0.0
14/10:00pm 13.3 8.2 1.0 43 5.3 N 17 30 9 16 - - 0.0
14/09:30pm 12.4 9.0 1.7 48 4.6 NW 9 17 5 9 - - 0.0
14/09:00pm 13.9 9.3 1.5 43 5.4 SSW 15 24 8 13 - - 0.0
14/08:30pm 13.9 9.7 1.9 44 5.3 SW 13 24 7 13 - - 0.0
14/08:00pm 15.1 10.0 0.9 38 6.2 W 17 32 9 17 - - 0.0
14/07:30pm 15.6 10.5 1.0 37 6.4 NW 17 30 9 16 - - 0.0
14/07:00pm 16.4 9.9 0.5 34 7.0 WNW 24 35 13 19 - - 0.0
14/06:30pm 17.9 11.8 0.6 31 7.7 WNW 22 39 12 21 - - 0.0
14/06:01pm 18.7 11.4 -0.2 28 8.3 WNW 28 48 15 26 - - 0.0
14/06:00pm 18.7 11.8 0.3 29 8.2 WNW 26 48 14 26 - - 0.0
14/05:30pm 19.4 13.0 0.9 29 8.4 WNW 24 48 13 26 - - 0.0
14/05:00pm 19.8 12.8 2.2 31 8.2 WNW 28 48 15 26 - - 0.0
14/04:43pm 20.1 13.0 1.5 29 8.6 WNW 28 54 15 29 - - 0.0
14/04:30pm 20.4 13.4 1.8 29 8.6 WNW 28 41 15 22 - - 0.0
14/04:00pm 20.9 15.5 2.7 30 8.6 WNW 20 32 11 17 - - 0.0
14/03:30pm 21.2 16.4 2.5 29 8.9 WSW 17 30 9 16 - - 0.0
14/03:00pm 20.9 15.3 3.2 31 8.5 WSW 22 43 12 23 - - 0.0
14/02:30pm 20.5 14.3 1.9 29 8.7 W 24 39 13 21 - - 0.0
14/02:00pm 20.5 14.1 0.9 27 9.0 WSW 24 37 13 20 - - 0.0
14/01:30pm 20.4 15.6 2.7 31 8.4 WSW 17 33 9 18 - - 0.0
14/01:00pm 19.8 14.9 3.9 35 7.7 W 19 30 10 16 - - 0.0
14/12:30pm 19.8 14.7 4.3 36 7.5 W 20 35 11 19 - - 0.0
14/12:00pm 20.2 14.8 4.3 35 7.8 WNW 22 37 12 20 - - 0.0
14/11:30am 18.6 13.4 3.3 36 7.2 WNW 20 32 11 17 - - 0.0
14/11:00am 19.0 13.6 4.4 38 7.1 WNW 22 37 12 20 - - 0.0
14/10:30am 17.6 11.8 4.2 41 6.4 NW 24 35 13 19 - - 0.0
14/10:00am 17.4 12.3 4.0 41 6.4 W 20 32 11 17 - - 0.0
14/09:30am 17.3 13.5 5.6 46 5.7 WNW 15 32 8 17 - - 0.0
14/09:00am 16.0 11.6 5.0 48 5.3 WNW 17 22 9 12 - - 0.0
14/08:30am 14.4 11.7 5.5 55 4.3 S 9 13 5 7 - - 0.0
14/08:00am 11.0 8.8 5.5 69 2.6 SSW 6 13 3 7 - - 0.0
14/07:30am 8.8 6.8 4.2 73 2.0 NE 4 9 2 5 - - 0.0
14/07:00am 8.4 5.7 3.7 72 2.1 WSW 7 11 4 6 - - 0.0
14/06:30am 8.5 6.0 3.6 71 2.1 S 6 11 3 6 - - 0.0
14/06:00am 8.4 5.8 3.1 69 2.3 SSE 6 9 3 5 - - 0.0
14/05:30am 8.3 5.4 2.8 68 2.4 ESE 7 9 4 5 - - 0.0
14/05:00am 8.0 5.0 2.3 67 2.4 ESE 7 9 4 5 - - 0.0
14/04:30am 7.0 3.6 1.7 69 2.2 ESE 9 11 5 6 - - 0.0
14/04:00am 5.3 2.1 0.7 72 1.8 SE 7 11 4 6 - - 0.0
14/03:30am 5.8 3.1 0.6 69 2.1 SSW 4 7 2 4 - - 0.0
14/03:00am 6.2 3.2 0.7 68 2.2 SE 6 9 3 5 - - 0.0
14/02:30am 5.7 2.7 0.5 69 2.0 W 6 7 3 4 - - 0.0
14/02:00am 6.2 4.2 -0.1 64 2.5 CALM 0 0 0 0 - - 0.0
14/01:30am 6.7 4.2 -0.7 59 2.9 NNE 2 6 1 3 - - 0.0
14/01:00am 9.7 5.9 -0.5 49 4.1 SSW 9 17 5 9 - - 0.0
14/12:30am 8.0 5.2 -0.7 54 3.4 S 4 7 2 4 - - 0.0
14/12:00am 10.1 6.7 -0.7 47 4.3 SW 7 13 4 7 - - 0.0
 
Date/Time
EDT
Temp
°C
App
Temp
°C
Dew
Point
°C
Rel
Hum
%
Delta-T
°C
Wind Press
QNH
hPa
Press
MSL
hPa
Rain since
9am
mm
Dir  Spd
km/h
Gust
km/h
Spd
kts
Gust
kts
13/11:30pm 10.3 6.1 -1.1 45 4.5 SW 11 17 6 9 - - 0.0
13/11:00pm 8.7 5.8 -1.1 50 3.8 W 4 9 2 5 - - 0.0
13/10:30pm 10.7 6.4 -2.0 41 5.0 SSW 11 19 6 10 - - 0.0
13/10:00pm 10.8 6.8 -2.2 40 5.1 WSW 9 15 5 8 - - 0.0
13/09:30pm 11.8 6.3 -2.4 37 5.6 SW 17 33 9 18 - - 0.0
13/09:00pm 12.0 6.0 -1.9 38 5.5 SSW 20 35 11 19 - - 0.0
13/08:30pm 12.3 6.5 -1.2 39 5.5 SSW 19 32 10 17 - - 0.0
13/08:00pm 12.3 7.7 -1.2 39 5.5 SW 13 24 7 13 - - 0.0
13/07:30pm 13.0 7.3 -1.0 38 5.7 SSW 19 33 10 18 - - 0.0
13/07:00pm 13.8 6.6 -1.8 34 6.3 WSW 26 43 14 23 - - 0.0
13/06:30pm 14.6 6.1 -1.9 32 6.7 W 33 54 18 29 - - 0.0
13/06:22pm 15.0 7.9 -1.5 32 6.8 WSW 26 50 14 27 - - 0.0
13/06:00pm 14.4 7.6 0.6 39 5.9 SW 26 44 14 24 - - 0.0
13/05:30pm 14.8 8.7 0.6 38 6.1 SW 22 43 12 23 - - 0.0
13/05:19pm 15.0 7.8 0.4 37 6.3 SW 28 48 15 26 - - 0.0
13/05:00pm 15.2 9.1 0.6 37 6.3 SW 22 41 12 22 - - 0.0
13/04:30pm 16.2 7.8 -1.4 30 7.4 WSW 33 54 18 29 - - 0.0
13/04:00pm 16.8 8.2 0.0 32 7.3 WSW 35 59 19 32 - - 0.0
13/03:39pm 17.4 8.7 -0.8 29 7.8 W 35 69 19 37 - - 0.0
13/03:31pm 18.4 10.4 0.5 30 8.0 WSW 32 50 17 27 - - 0.0
13/03:30pm 17.9 9.7 0.1 30 7.8 WSW 33 50 18 27 - - 0.0
13/03:00pm 16.5 9.3 1.0 35 6.9 SW 28 61 15 33 - - 0.0
13/02:52pm 16.4 8.5 0.9 35 6.8 WSW 32 59 17 32 - - 0.0
13/02:30pm 17.5 9.2 4.1 41 6.4 W 37 56 20 30 - - 0.0
13/02:12pm 16.2 9.5 3.9 44 5.8 W 28 48 15 26 - - 0.0
13/02:00pm 16.2 10.9 5.2 48 5.3 W 22 43 12 23 - - 0.0
13/01:31pm 15.3 7.4 4.1 47 5.2 WNW 35 54 19 29 - - 0.0
13/01:30pm 15.4 7.2 4.8 49 5.0 WNW 37 63 20 34 - - 0.0
13/01:01pm 15.1 8.3 3.3 45 5.4 NW 28 46 15 25 - - 0.0
13/01:00pm 15.2 8.5 3.4 45 5.4 NW 28 44 15 24 - - 0.0
13/12:36pm 14.7 7.5 2.9 45 5.4 WNW 30 48 16 26 - - 0.0
13/12:30pm 15.0 8.9 2.5 43 5.6 WNW 24 35 13 19 - - 0.0
13/12:00pm 14.1 7.2 2.7 46 5.1 NW 28 41 15 22 - - 0.0
13/11:37am 14.4 7.4 1.7 42 5.6 NW 28 46 15 25 - - 0.0
13/11:30am 13.7 6.2 1.4 43 5.4 NW 30 46 16 25 - - 0.0
13/11:00am 14.3 6.7 0.6 39 5.9 WNW 30 48 16 26 - - 0.0
13/10:30am 14.7 7.4 -0.2 36 6.3 WNW 28 46 15 25 - - 0.0
13/10:00am 13.5 7.2 -1.3 36 6.1 WSW 22 41 12 22 - - 0.0
13/09:30am 12.7 6.8 -0.5 40 5.5 WSW 20 48 11 26 - - 0.0
13/09:00am 11.6 4.8 -1.9 39 5.4 WSW 24 41 13 22 - - 0.0
13/08:30am 11.2 5.3 -1.9 40 5.2 W 19 35 10 19 - - 0.0
13/08:00am 10.3 5.3 -1.4 44 4.6 WSW 15 26 8 14 - - 0.0
13/07:30am 8.5 3.8 -1.6 49 3.9 W 13 24 7 13 - - 0.0
13/07:00am 7.4 3.8 -2.3 50 3.6 SW 7 11 4 6 - - 0.0
13/06:30am 6.7 3.1 -2.4 52 3.4 S 7 9 4 5 - - 0.0
13/06:00am 6.6 1.8 -2.3 53 3.3 SW 13 20 7 11 - - 0.0
13/05:30am 6.1 2.5 -2.2 55 3.1 SW 7 15 4 8 - - 0.0
13/05:00am 6.5 1.7 -2.6 52 3.3 WSW 13 26 7 14 - - 0.0
13/04:30am 6.7 2.0 -1.9 54 3.2 W 13 19 7 10 - - 0.0
13/04:00am 7.1 3.1 -2.1 52 3.5 SW 9 19 5 10 - - 0.0
13/03:30am 6.7 2.7 -1.9 54 3.2 SSW 9 17 5 9 - - 0.0
13/03:00am 6.7 2.0 -1.7 55 3.2 SSW 13 20 7 11 - - 0.0
13/02:30am 6.7 1.9 -2.2 53 3.3 SSW 13 24 7 13 - - 0.0
13/02:00am 6.6 1.9 -2.0 54 3.2 SSW 13 20 7 11 - - 0.0
13/01:30am 6.5 2.1 -2.1 54 3.2 SSW 11 19 6 10 - - 0.0
13/01:00am 6.8 2.5 -1.8 54 3.2 SSW 11 17 6 9 - - 0.0
13/12:30am 6.8 2.8 -2.1 53 3.3 SW 9 15 5 8 - - 0.0
13/12:00am 6.8 2.9 -1.8 54 3.2 SW 9 17 5 9 - - 0.0
 
Date/Time
EDT
Temp
°C
App
Temp
°C
Dew
Point
°C
Rel
Hum
%
Delta-T
°C
Wind Press
QNH
hPa
Press
MSL
hPa
Rain since
9am
mm
Dir  Spd
km/h
Gust
km/h
Spd
kts
Gust
kts
12/11:30pm 7.0 3.1 -1.7 54 3.3 WSW 9 19 5 10 - - 0.0
12/11:00pm 7.2 3.7 -1.2 55 3.2 WSW 7 13 4 7 - - 0.0
12/10:30pm 8.0 3.0 -1.2 52 3.6 WSW 15 28 8 15 - - 0.0
12/10:00pm 8.6 3.2 -1.2 50 3.8 W 17 24 9 13 - - 0.0
12/09:30pm 9.1 3.7 -1.3 48 4.1 W 17 28 9 15 - - 0.0
12/09:00pm 9.4 4.3 -1.9 45 4.4 W 15 30 8 16 - - 0.0
12/08:30pm 9.9 4.4 -2.4 42 4.7 W 17 32 9 17 - - 0.0
12/08:00pm 10.6 4.7 -2.4 40 5.0 W 19 28 10 15 - - 0.0
12/07:30pm 11.4 5.3 -2.0 39 5.3 WNW 20 35 11 19 - - 0.0
12/07:00pm 12.1 4.8 -2.5 36 5.7 WNW 26 41 14 22 - - 0.0
12/06:30pm 12.3 6.3 -3.1 34 6.0 W 19 32 10 17 - - 0.0
12/06:00pm 13.6 6.5 -4.1 29 6.8 W 24 41 13 22 - - 0.0
12/05:30pm 14.5 6.7 -3.8 28 7.2 W 28 44 15 24 - - 0.0
12/05:13pm 14.6 7.1 -4.2 27 7.3 WNW 26 46 14 25 - - 0.0
12/05:00pm 14.3 7.5 -4.9 26 7.3 WSW 22 48 12 26 - - 0.0
12/04:30pm 13.8 5.4 -2.6 32 6.6 W 32 52 17 28 - - 0.0
12/04:00pm 16.1 7.5 -2.9 27 7.7 W 33 57 18 31 - - 0.0
12/03:32pm 16.0 8.4 -2.0 29 7.4 W 28 46 15 25 - - 0.0
12/03:30pm 15.1 7.2 -1.9 31 7.0 W 30 46 16 25 - - 0.0
12/03:00pm 16.6 8.7 -5.2 22 8.5 W 28 48 15 26 - - 0.0
12/02:47pm 17.1 10.0 -4.8 22 8.6 W 24 46 13 25 - - 0.0
12/02:30pm 15.9 9.3 -3.0 27 7.6 WSW 22 37 12 20 - - 0.0
12/02:00pm 16.4 9.2 -2.1 28 7.7 W 26 43 14 23 - - 0.0
12/01:30pm 16.0 9.8 -3.5 26 7.8 WSW 20 37 11 20 - - 0.0
12/01:00pm 14.6 8.6 -3.2 29 7.1 WSW 19 37 10 20 - - 0.0
12/12:30pm 15.4 8.8 -3.0 28 7.4 WSW 22 44 12 24 - - 0.0
12/12:00pm 15.3 9.3 -3.1 28 7.4 W 19 30 10 16 - - 0.0
12/11:30am 15.3 8.5 -1.7 31 7.0 W 24 41 13 22 - - 0.0
12/11:00am 15.7 10.5 -0.1 34 6.8 WSW 17 33 9 18 - - 0.0
12/10:30am 15.2 10.2 1.4 39 6.1 WSW 17 33 9 18 - - 0.0

Other formats

Comma delimited format used in spreadsheet applications
http://www.bom.gov.au/fwo/IDT60801/IDT60801.95974.axf

JavaScript Object Notation format (JSON) in row-major order
http://www.bom.gov.au/fwo/IDT60801/IDT60801.95974.json

Data quality

Most of these data are generated automatically and are frequently updated. Quality checks on data are not normally performed. It is possible for incorrect values to appear. Refer to information at About Latest Weather Observations and please check the disclaimer before using these data.